createdAt,value
2023-06-05T00:01:05.083Z,13.00
2023-06-05T00:03:32.713Z,12.90
2023-06-05T00:06:00.402Z,12.90
2023-06-05T00:08:28.029Z,12.90
2023-06-05T00:10:55.669Z,12.90
2023-06-05T00:13:23.306Z,12.90
2023-06-05T00:15:52.768Z,12.90
2023-06-05T00:18:20.929Z,12.80
2023-06-05T00:20:48.655Z,12.80
2023-06-05T00:23:16.208Z,12.80
2023-06-05T00:25:43.756Z,12.70
2023-06-05T00:28:11.452Z,12.70
2023-06-05T00:30:40.155Z,12.70
2023-06-05T00:33:07.743Z,12.70
2023-06-05T00:35:35.309Z,12.70
2023-06-05T00:38:02.875Z,12.60
2023-06-05T00:40:30.318Z,12.60
2023-06-05T00:42:57.797Z,12.60
2023-06-05T00:45:25.483Z,12.50
2023-06-05T00:47:53.379Z,12.60
2023-06-05T00:50:22.842Z,12.50
2023-06-05T00:52:51.480Z,12.50
2023-06-05T00:55:19.418Z,12.50
2023-06-05T00:57:47.430Z,12.30
2023-06-05T01:00:16.389Z,12.30
2023-06-05T01:02:44.220Z,12.30
2023-06-05T01:05:12.038Z,12.30
2023-06-05T01:07:39.785Z,12.30
2023-06-05T01:10:11.597Z,12.30
2023-06-05T01:12:57.243Z,12.30
2023-06-05T01:15:32.611Z,12.20
2023-06-05T01:18:01.748Z,12.10
2023-06-05T01:20:40.857Z,12.10
2023-06-05T01:23:09.614Z,12.20
2023-06-05T01:25:38.166Z,12.20
2023-06-05T01:28:22.581Z,12.20
2023-06-05T01:31:02.324Z,12.10
2023-06-05T01:33:45.587Z,12.10
2023-06-05T01:36:14.791Z,12.10
2023-06-05T01:38:44.094Z,12.00
2023-06-05T01:41:14.610Z,12.00
2023-06-05T01:43:42.945Z,12.00
2023-06-05T01:46:11.734Z,12.00
2023-06-05T01:48:44.159Z,12.00
2023-06-05T01:51:11.752Z,12.00
2023-06-05T01:53:39.701Z,11.90
2023-06-05T01:56:09.564Z,11.90
2023-06-05T01:58:38.317Z,11.80
2023-06-05T02:01:06.852Z,11.80
2023-06-05T02:03:34.944Z,11.70
2023-06-05T02:06:02.510Z,11.70
2023-06-05T02:08:30.018Z,11.60
2023-06-05T02:10:57.665Z,11.50
2023-06-05T02:13:26.290Z,11.50
2023-06-05T02:15:57.793Z,11.50
2023-06-05T02:18:26.818Z,11.40
2023-06-05T02:20:57.676Z,11.30
2023-06-05T02:23:26.000Z,11.30
2023-06-05T02:25:53.628Z,11.30
2023-06-05T02:28:21.670Z,11.30
2023-06-05T02:30:49.427Z,11.30
2023-06-05T02:33:17.114Z,11.30
2023-06-05T02:35:44.641Z,11.10
2023-06-05T02:38:13.978Z,11.10
2023-06-05T02:40:41.650Z,11.00
2023-06-05T02:43:09.459Z,11.00
2023-06-05T02:45:37.145Z,10.90
2023-06-05T02:48:04.823Z,11.10
2023-06-05T02:50:32.399Z,11.10
2023-06-05T02:52:59.947Z,11.10
2023-06-05T02:55:31.010Z,11.10
2023-06-05T02:57:59.098Z,11.10
2023-06-05T03:00:27.505Z,11.10
2023-06-05T03:02:57.045Z,11.10
2023-06-05T03:05:26.600Z,11.10
2023-06-05T03:07:54.856Z,11.10
2023-06-05T03:10:23.072Z,11.10
2023-06-05T03:12:50.709Z,11.00
2023-06-05T03:15:19.272Z,11.00
2023-06-05T03:17:47.383Z,11.00
2023-06-05T03:20:14.997Z,11.00
2023-06-05T03:22:42.603Z,11.00
2023-06-05T03:25:10.939Z,11.10
2023-06-05T03:27:38.581Z,11.20
2023-06-05T03:30:07.112Z,11.10
2023-06-05T03:32:34.670Z,11.20
2023-06-05T03:35:02.175Z,11.20
2023-06-05T03:37:29.702Z,11.20
2023-06-05T03:39:57.344Z,11.30
2023-06-05T03:42:24.952Z,11.50
2023-06-05T03:44:52.451Z,11.60
2023-06-05T03:47:22.928Z,11.70
2023-06-05T03:49:53.877Z,11.80
2023-06-05T03:52:24.803Z,11.80
2023-06-05T03:54:54.758Z,11.80
2023-06-05T03:57:23.505Z,11.90
2023-06-05T03:59:51.334Z,11.90
2023-06-05T04:02:19.550Z,12.00
2023-06-05T04:04:47.157Z,12.00
2023-06-05T04:07:14.775Z,12.00
2023-06-05T04:09:42.240Z,12.10
2023-06-05T04:12:11.623Z,12.20
2023-06-05T04:14:40.038Z,12.20
2023-06-05T04:17:07.701Z,12.30
2023-06-05T04:19:35.738Z,12.30
2023-06-05T04:22:03.453Z,12.30
2023-06-05T04:24:31.669Z,12.30
2023-06-05T04:27:02.036Z,12.40
2023-06-05T04:29:30.127Z,12.40
2023-06-05T04:31:57.736Z,12.30
2023-06-05T04:34:25.398Z,12.30
2023-06-05T04:36:53.079Z,12.30
2023-06-05T04:39:20.701Z,12.40
2023-06-05T04:41:57.104Z,12.60
2023-06-05T04:44:31.041Z,12.70
2023-06-05T04:46:58.835Z,12.70
2023-06-05T04:49:26.686Z,12.70
2023-06-05T04:51:54.627Z,12.90
2023-06-05T04:54:23.251Z,12.90
2023-06-05T04:56:51.163Z,12.90
2023-06-05T04:59:18.778Z,12.80
2023-06-05T05:01:46.576Z,12.90
2023-06-05T05:04:14.386Z,13.00
2023-06-05T05:06:48.441Z,13.10
2023-06-05T05:09:16.245Z,13.20
2023-06-05T05:11:43.916Z,13.30
2023-06-05T05:14:11.509Z,13.40
2023-06-05T05:16:39.147Z,13.50
2023-06-05T05:19:06.978Z,13.60
2023-06-05T05:21:34.458Z,13.70
2023-06-05T05:24:02.321Z,13.80
2023-06-05T05:26:30.009Z,13.90
2023-06-05T05:28:57.584Z,14.00
2023-06-05T05:31:25.208Z,14.00
2023-06-05T05:33:52.722Z,14.10
2023-06-05T05:36:20.249Z,14.10
2023-06-05T05:38:47.919Z,14.20
2023-06-05T05:41:15.590Z,14.30
2023-06-05T05:43:43.122Z,14.40
2023-06-05T05:46:10.749Z,14.50
2023-06-05T05:48:39.195Z,14.60
2023-06-05T05:51:11.088Z,14.60
2023-06-05T05:53:38.733Z,14.80
2023-06-05T05:56:06.354Z,14.90
2023-06-05T05:58:33.949Z,15.10
2023-06-05T06:01:01.793Z,15.20
2023-06-05T06:03:31.926Z,15.30
2023-06-05T06:05:59.932Z,15.40
2023-06-05T06:08:28.168Z,15.50
2023-06-05T06:10:56.422Z,15.60
2023-06-05T06:13:24.297Z,15.70
2023-06-05T06:15:52.058Z,15.90
2023-06-05T06:18:20.426Z,16.00
2023-06-05T06:20:48.476Z,16.20
2023-06-05T06:23:16.182Z,16.20
2023-06-05T06:25:44.539Z,16.40
2023-06-05T06:28:12.365Z,16.40
2023-06-05T06:30:39.959Z,16.60
2023-06-05T06:33:07.444Z,16.70
2023-06-05T06:35:37.734Z,16.90
2023-06-05T06:38:05.354Z,17.00
2023-06-05T06:40:32.962Z,17.10
2023-06-05T06:43:01.258Z,17.20
2023-06-05T06:45:28.876Z,17.30
2023-06-05T06:48:07.314Z,17.40
2023-06-05T06:50:36.140Z,17.50
2023-06-05T06:53:04.561Z,17.80
2023-06-05T06:55:32.833Z,18.00
2023-06-05T06:58:00.401Z,18.00
2023-06-05T07:00:28.003Z,18.20
2023-06-05T07:02:55.657Z,18.40
2023-06-05T07:05:23.887Z,18.40
2023-06-05T07:07:51.567Z,18.50
2023-06-05T07:10:19.119Z,18.60
2023-06-05T07:12:46.799Z,18.70
2023-06-05T07:15:14.373Z,18.70
2023-06-05T07:17:42.063Z,18.70
2023-06-05T07:20:10.420Z,18.80
2023-06-05T07:22:38.041Z,18.90
2023-06-05T07:25:06.371Z,19.00
2023-06-05T07:27:33.989Z,19.20
2023-06-05T07:30:01.874Z,19.30
2023-06-05T07:32:29.409Z,19.50
2023-06-05T07:34:58.172Z,19.50
2023-06-05T07:37:25.752Z,19.60
2023-06-05T07:39:53.598Z,19.60
2023-06-05T07:42:21.327Z,19.70
2023-06-05T07:44:49.692Z,19.70
2023-06-05T07:47:17.310Z,19.70
2023-06-05T07:49:44.855Z,19.70
2023-06-05T07:52:12.534Z,19.80
2023-06-05T07:54:40.155Z,20.10
2023-06-05T07:57:09.396Z,20.20
2023-06-05T07:59:37.078Z,20.40
2023-06-05T08:02:06.574Z,20.50
2023-06-05T08:04:35.146Z,20.50
2023-06-05T08:07:41.276Z,20.70
2023-06-05T08:10:10.201Z,21.00
2023-06-05T08:12:37.731Z,21.00
2023-06-05T08:15:07.336Z,21.10
2023-06-05T08:17:34.921Z,21.10
2023-06-05T08:20:06.659Z,21.20
2023-06-05T08:22:34.257Z,21.30
2023-06-05T08:25:02.237Z,21.50
2023-06-05T08:27:29.883Z,21.60
2023-06-05T08:29:57.885Z,21.90
2023-06-05T08:32:25.735Z,22.00
2023-06-05T08:34:53.545Z,22.20
2023-06-05T08:37:24.015Z,22.30
2023-06-05T08:39:55.261Z,22.40
2023-06-05T08:42:26.354Z,22.60
2023-06-05T08:45:02.441Z,22.60
2023-06-05T08:47:32.152Z,22.80
2023-06-05T08:50:04.850Z,22.90
2023-06-05T08:52:38.393Z,23.00
2023-06-05T08:55:07.282Z,23.10
2023-06-05T08:57:42.167Z,23.10
2023-06-05T09:00:15.893Z,23.20
2023-06-05T09:02:49.035Z,22.70
2023-06-05T09:05:18.468Z,22.40
2023-06-05T09:07:46.990Z,22.50
2023-06-05T09:10:30.394Z,22.80
2023-06-05T09:13:01.876Z,23.00
2023-06-05T09:15:34.905Z,23.10
2023-06-05T09:18:16.894Z,23.30
2023-06-05T09:20:49.632Z,23.30
2023-06-05T09:23:28.259Z,22.90
2023-06-05T09:26:00.320Z,22.70
2023-06-05T09:28:28.288Z,22.90
2023-06-05T09:31:03.654Z,23.20
2023-06-05T09:33:36.742Z,22.80
2023-06-05T09:36:13.692Z,22.80
2023-06-05T09:38:43.106Z,23.30
2023-06-05T09:41:15.858Z,23.60
2023-06-05T09:43:43.741Z,23.80
2023-06-05T09:46:14.111Z,24.10
2023-06-05T09:48:45.297Z,24.30
2023-06-05T09:51:19.472Z,24.30
2023-06-05T09:53:54.495Z,23.90
2023-06-05T09:56:23.612Z,24.10
2023-06-05T09:58:54.389Z,24.10
2023-06-05T10:01:25.998Z,24.00
2023-06-05T10:04:07.414Z,24.10
2023-06-05T10:06:36.590Z,23.70
2023-06-05T10:09:04.780Z,23.80
2023-06-05T10:11:32.898Z,23.70
2023-06-05T10:14:02.119Z,23.40
2023-06-05T10:16:30.714Z,23.50
2023-06-05T10:19:00.787Z,23.30
2023-06-05T10:21:30.449Z,23.30
2023-06-05T10:24:06.971Z,23.20
2023-06-05T10:26:53.193Z,23.10
2023-06-05T10:29:42.166Z,23.20
2023-06-05T10:32:29.822Z,23.50
2023-06-05T10:35:34.370Z,24.00
2023-06-05T10:38:25.465Z,25.00
2023-06-05T10:41:05.222Z,25.90
2023-06-05T10:43:54.447Z,26.40
2023-06-05T10:46:42.321Z,27.00
2023-06-05T10:49:14.589Z,26.50
2023-06-05T10:51:48.178Z,26.70
2023-06-05T10:54:39.751Z,27.20
2023-06-05T10:57:08.459Z,26.90
2023-06-05T10:59:41.016Z,27.30
2023-06-05T11:02:12.898Z,27.80
2023-06-05T11:04:52.457Z,28.40
2023-06-05T11:07:31.629Z,28.50
2023-06-05T11:10:19.217Z,28.70
2023-06-05T11:12:46.747Z,29.10
2023-06-05T11:15:41.387Z,29.00
2023-06-05T11:18:47.949Z,29.20
2023-06-05T11:21:15.463Z,28.70
2023-06-05T11:24:15.186Z,29.10
2023-06-05T11:26:43.755Z,29.70
2023-06-05T11:29:17.165Z,30.20
2023-06-05T11:31:45.992Z,31.00
2023-06-05T11:34:15.575Z,29.40
2023-06-05T11:36:43.245Z,29.20
2023-06-05T11:39:11.843Z,29.10
2023-06-05T11:41:54.361Z,30.10
2023-06-05T11:44:37.008Z,31.00
2023-06-05T11:47:04.770Z,30.80
2023-06-05T11:49:32.446Z,31.90
2023-06-05T11:52:02.088Z,33.40
2023-06-05T11:54:35.070Z,32.70
2023-06-05T11:57:13.516Z,30.90
2023-06-05T11:59:41.314Z,31.80
2023-06-05T12:02:09.784Z,32.80
2023-06-05T12:04:44.242Z,32.40
2023-06-05T12:07:13.408Z,31.90
2023-06-05T12:09:41.972Z,30.00
2023-06-05T12:12:10.625Z,30.30
2023-06-05T12:14:38.458Z,31.70
2023-06-05T12:17:13.244Z,33.80
2023-06-05T12:19:41.873Z,33.10
2023-06-05T12:22:10.968Z,32.20
2023-06-05T12:24:39.099Z,31.90
2023-06-05T12:27:07.778Z,32.10
2023-06-05T12:29:40.238Z,31.90
2023-06-05T12:32:27.824Z,31.40
2023-06-05T12:37:45.844Z,34.40
2023-06-05T12:40:21.812Z,35.30
2023-06-05T12:42:59.995Z,35.90
2023-06-05T12:45:27.746Z,36.30
2023-06-05T12:47:55.426Z,35.30
2023-06-05T12:50:23.195Z,35.60
2023-06-05T12:52:50.947Z,35.80
2023-06-05T12:55:18.520Z,36.30
2023-06-05T12:57:46.476Z,35.80
2023-06-05T13:00:15.457Z,35.10
2023-06-05T13:02:46.966Z,33.20
2023-06-05T13:05:18.156Z,33.70
2023-06-05T13:07:46.325Z,34.80
2023-06-05T13:10:14.157Z,34.50
2023-06-05T13:12:43.803Z,32.70
2023-06-05T13:15:12.081Z,31.60
2023-06-05T13:17:40.135Z,31.90
2023-06-05T13:20:12.342Z,33.30
2023-06-05T13:22:43.170Z,33.60
2023-06-05T13:25:11.758Z,33.30
2023-06-05T13:27:39.575Z,33.40
2023-06-05T13:30:08.208Z,33.40
2023-06-05T13:32:40.246Z,33.70
2023-06-05T13:35:09.620Z,34.00
2023-06-05T13:37:39.339Z,32.30
2023-06-05T13:40:07.730Z,33.00
2023-06-05T13:42:35.398Z,32.00
2023-06-05T13:45:03.618Z,31.50
2023-06-05T13:47:31.379Z,32.00
2023-06-05T13:49:59.258Z,31.00
2023-06-05T13:52:26.969Z,30.60
2023-06-05T13:54:54.745Z,29.50
2023-06-05T13:57:22.319Z,29.50
2023-06-05T13:59:49.840Z,29.70
2023-06-05T14:02:17.694Z,29.50
2023-06-05T14:04:45.296Z,29.30
2023-06-05T14:07:12.845Z,29.40
2023-06-05T14:09:40.579Z,30.90
2023-06-05T14:12:11.136Z,32.20
2023-06-05T14:14:38.655Z,33.00
2023-06-05T14:17:06.694Z,33.80
2023-06-05T14:19:34.246Z,34.30
2023-06-05T14:22:01.789Z,34.90
2023-06-05T14:24:29.310Z,36.20
2023-06-05T14:26:56.927Z,37.40
2023-06-05T14:29:24.432Z,34.80
2023-06-05T14:31:52.167Z,34.70
2023-06-05T14:34:21.404Z,33.10
2023-06-05T14:36:52.734Z,33.40
2023-06-05T14:39:22.101Z,33.70
2023-06-05T14:41:49.689Z,34.60
2023-06-05T14:44:23.041Z,36.00
2023-06-05T14:46:54.280Z,37.10
2023-06-05T14:49:21.822Z,36.70
2023-06-05T14:51:49.382Z,35.60
2023-06-05T14:54:17.097Z,36.00
2023-06-05T14:56:45.547Z,35.60
2023-06-05T15:01:48.044Z,34.50
2023-06-05T15:04:16.449Z,33.80
2023-06-05T15:06:44.185Z,33.40
2023-06-05T15:09:11.770Z,33.80
2023-06-05T15:11:39.293Z,33.80
2023-06-05T15:14:06.864Z,34.40
2023-06-05T15:16:41.978Z,32.90
2023-06-05T15:19:11.281Z,30.80
2023-06-05T15:21:39.028Z,29.60
2023-06-05T15:24:07.124Z,29.50
2023-06-05T15:26:35.008Z,28.60
2023-06-05T15:29:02.635Z,28.10
2023-06-05T15:31:30.186Z,28.00
2023-06-05T15:33:58.463Z,28.10
2023-06-05T15:36:27.325Z,28.50
2023-06-05T15:38:54.878Z,28.70
2023-06-05T15:41:24.763Z,28.30
2023-06-05T15:43:52.413Z,28.00
2023-06-05T15:46:20.161Z,28.30
2023-06-05T15:48:47.705Z,28.80
2023-06-05T15:51:15.348Z,29.50
2023-06-05T15:53:55.198Z,29.50
2023-06-05T15:56:28.322Z,29.60
2023-06-05T15:58:56.124Z,30.80
2023-06-05T16:01:24.947Z,31.00
2023-06-05T16:03:52.995Z,31.20
2023-06-05T16:06:21.754Z,30.50
2023-06-05T16:08:49.349Z,30.90
2023-06-05T16:11:16.884Z,31.80
2023-06-05T16:13:45.872Z,31.60
2023-06-05T16:16:13.755Z,31.40
2023-06-05T16:18:41.613Z,30.50
2023-06-05T16:21:09.304Z,30.00
2023-06-05T16:23:37.298Z,29.30
2023-06-05T16:26:04.934Z,28.90
2023-06-05T16:28:32.532Z,28.30
2023-06-05T16:31:00.172Z,27.80
2023-06-05T16:33:28.136Z,27.70
2023-06-05T16:35:55.803Z,27.40
2023-06-05T16:38:23.278Z,27.40
2023-06-05T16:40:51.073Z,27.80
2023-06-05T16:43:18.577Z,28.10
2023-06-05T16:45:47.776Z,27.80
2023-06-05T16:48:15.610Z,27.10
2023-06-05T16:50:45.393Z,26.70
2023-06-05T16:53:14.839Z,26.60
2023-06-05T16:55:42.530Z,26.30
2023-06-05T16:58:10.388Z,26.10
2023-06-05T17:00:38.312Z,25.90
2023-06-05T17:03:06.802Z,25.90
2023-06-05T17:05:34.770Z,25.90
2023-06-05T17:08:02.808Z,25.60
2023-06-05T17:10:30.412Z,25.50
2023-06-05T17:12:58.278Z,25.40
2023-06-05T17:15:26.561Z,25.40
2023-06-05T17:17:54.132Z,25.30
2023-06-05T17:20:21.772Z,25.20
2023-06-05T17:22:49.365Z,25.10
2023-06-05T17:25:17.165Z,24.90
2023-06-05T17:27:44.902Z,24.50
2023-06-05T17:30:14.714Z,24.20
2023-06-05T17:32:42.551Z,24.00
2023-06-05T17:35:10.227Z,23.80
2023-06-05T17:37:37.726Z,23.70
2023-06-05T17:40:06.903Z,23.60
2023-06-05T17:42:34.653Z,23.40
2023-06-05T17:45:02.248Z,23.20
2023-06-05T17:47:29.911Z,23.10
2023-06-05T17:49:57.697Z,23.00
2023-06-05T17:52:25.328Z,22.90
2023-06-05T17:54:52.923Z,22.70
2023-06-05T17:57:20.591Z,22.50
2023-06-05T17:59:48.522Z,22.20
2023-06-05T18:02:16.200Z,22.10
2023-06-05T18:04:43.811Z,21.90
2023-06-05T18:07:11.465Z,21.80
2023-06-05T18:09:38.993Z,21.80
2023-06-05T18:12:08.171Z,21.60
2023-06-05T18:14:36.333Z,21.40
2023-06-05T18:17:04.797Z,21.30
2023-06-05T18:19:32.427Z,21.20
2023-06-05T18:21:59.992Z,21.10
2023-06-05T18:24:27.647Z,21.00
2023-06-05T18:26:55.253Z,20.90
2023-06-05T18:29:22.835Z,20.80
2023-06-05T18:31:50.437Z,20.70
2023-06-05T18:34:18.107Z,20.70
2023-06-05T18:36:45.683Z,20.60
2023-06-05T18:39:14.675Z,20.50
2023-06-05T18:41:43.372Z,20.40
2023-06-05T18:44:11.939Z,20.40
2023-06-05T18:46:40.165Z,20.30
2023-06-05T18:49:07.850Z,20.20
2023-06-05T18:51:35.453Z,20.20
2023-06-05T18:54:03.176Z,20.10
2023-06-05T18:56:31.926Z,20.10
2023-06-05T18:58:59.532Z,20.00
2023-06-05T19:01:27.155Z,19.90
2023-06-05T19:03:54.713Z,19.90
2023-06-05T19:06:22.721Z,19.90
2023-06-05T19:08:50.332Z,19.90
2023-06-05T19:11:18.630Z,19.80
2023-06-05T19:13:46.249Z,19.80
2023-06-05T19:16:13.910Z,19.70
2023-06-05T19:18:43.010Z,19.60
2023-06-05T19:21:13.255Z,19.50
2023-06-05T19:23:41.088Z,19.40
2023-06-05T19:26:08.777Z,19.40
2023-06-05T19:28:36.652Z,19.40
2023-06-05T19:31:04.511Z,19.30
2023-06-05T19:33:32.146Z,19.30
2023-06-05T19:36:00.968Z,19.30
2023-06-05T19:38:28.498Z,19.20
2023-06-05T19:40:57.220Z,19.10
2023-06-05T19:43:24.811Z,19.00
2023-06-05T19:45:52.567Z,19.10
2023-06-05T19:48:21.834Z,19.10
2023-06-05T19:50:49.552Z,19.20
2023-06-05T19:53:17.303Z,19.10
2023-06-05T19:55:45.024Z,19.10
2023-06-05T19:58:12.742Z,19.20
2023-06-05T20:00:40.431Z,19.20
2023-06-05T20:03:08.718Z,19.30
2023-06-05T20:05:36.392Z,19.20
2023-06-05T20:08:04.070Z,19.10
2023-06-05T20:10:31.900Z,19.10
2023-06-05T20:13:00.027Z,19.10
2023-06-05T20:15:27.982Z,19.00
2023-06-05T20:17:55.540Z,19.00
2023-06-05T20:20:24.858Z,19.00
2023-06-05T20:22:52.971Z,18.90
2023-06-05T20:25:20.753Z,19.00
2023-06-05T20:27:50.122Z,18.90
2023-06-05T20:30:19.133Z,18.90
2023-06-05T20:32:46.732Z,18.90
2023-06-05T20:35:16.257Z,19.00
2023-06-05T20:37:46.328Z,18.90
2023-06-05T20:40:16.798Z,19.00
2023-06-05T20:42:47.027Z,19.00
2023-06-05T20:45:15.006Z,18.90
2023-06-05T20:47:44.186Z,18.80
2023-06-05T20:50:12.935Z,18.70
2023-06-05T20:52:40.763Z,18.70
2023-06-05T20:55:08.991Z,18.60
2023-06-05T20:57:36.608Z,18.60
2023-06-05T21:00:06.262Z,18.60
2023-06-05T21:02:33.877Z,18.70
2023-06-05T21:05:02.297Z,18.60
2023-06-05T21:07:29.799Z,18.60
2023-06-05T21:09:57.686Z,18.40
2023-06-05T21:12:25.531Z,18.30
2023-06-05T21:14:54.036Z,18.30
2023-06-05T21:17:21.636Z,18.10
2023-06-05T21:19:49.252Z,17.90
2023-06-05T21:22:16.805Z,17.70
2023-06-05T21:24:44.370Z,17.50
2023-06-05T21:27:12.373Z,17.30
2023-06-05T21:29:43.238Z,17.30
2023-06-05T21:32:11.037Z,17.30
2023-06-05T21:34:44.662Z,17.20
2023-06-05T21:37:17.050Z,17.00
2023-06-05T21:39:48.335Z,16.90
2023-06-05T21:42:17.201Z,16.70
2023-06-05T21:44:49.390Z,16.70
2023-06-05T21:47:19.685Z,16.70
2023-06-05T21:49:47.408Z,16.80
2023-06-05T21:52:15.193Z,16.70
2023-06-05T21:54:43.596Z,16.70
2023-06-05T21:57:12.960Z,16.70
2023-06-05T21:59:41.386Z,16.60
2023-06-05T22:02:09.109Z,16.50
2023-06-05T22:04:36.777Z,16.40
2023-06-05T22:07:04.616Z,16.30
2023-06-05T22:09:33.192Z,16.20
2023-06-05T22:12:01.904Z,16.10
2023-06-05T22:14:30.348Z,16.20
2023-06-05T22:16:58.829Z,16.30
2023-06-05T22:19:27.058Z,16.60
2023-06-05T22:21:54.664Z,16.80
2023-06-05T22:24:24.632Z,17.00
2023-06-05T22:26:52.332Z,17.10
2023-06-05T22:29:19.833Z,17.10
2023-06-05T22:31:47.471Z,17.10
2023-06-05T22:34:14.989Z,17.10
2023-06-05T22:36:45.350Z,17.20
2023-06-05T22:39:13.423Z,17.20
2023-06-05T22:41:42.094Z,17.10
2023-06-05T22:44:09.690Z,17.10
2023-06-05T22:46:37.214Z,17.10
2023-06-05T22:49:04.897Z,17.10
2023-06-05T22:51:33.890Z,17.10
2023-06-05T22:54:01.449Z,17.10
2023-06-05T22:56:29.182Z,17.10
2023-06-05T22:58:56.896Z,17.00
2023-06-05T23:01:25.716Z,17.00
2023-06-05T23:03:53.526Z,17.00
2023-06-05T23:06:21.728Z,16.90
2023-06-05T23:08:49.902Z,16.90
2023-06-05T23:11:17.760Z,16.80
2023-06-05T23:13:45.770Z,16.70
2023-06-05T23:16:13.433Z,16.60
2023-06-05T23:18:40.989Z,16.40
2023-06-05T23:21:08.930Z,16.20
2023-06-05T23:23:37.393Z,16.00
2023-06-05T23:26:05.516Z,16.00
2023-06-05T23:28:33.199Z,16.00
2023-06-05T23:31:00.841Z,16.10
2023-06-05T23:33:29.206Z,16.00
2023-06-05T23:35:56.821Z,16.20
2023-06-05T23:38:24.391Z,16.10
2023-06-05T23:40:51.867Z,16.10
2023-06-05T23:43:19.473Z,16.10
2023-06-05T23:45:46.981Z,16.00
2023-06-05T23:48:14.551Z,15.90
2023-06-05T23:50:42.208Z,15.90
2023-06-05T23:53:10.724Z,15.90
2023-06-05T23:55:40.216Z,15.80
2023-06-05T23:58:07.779Z,15.90
